Time;durP1;ratioP1;P1;durP2;ratioP2;P2;SDS_P1;SDS_P2;PMS_P1;PMS_P2;Temp;Humidity;BMP_temperature;BMP_pressure;BME280_temperature;BME280_humidity;BME280_pressure;Samples;Min_cycle;Max_cycle;Signal;HPM_P1;HPM_P2
2021/11/11 00:00:14;;;;;;;26.55;13.75;;;;;;;9.83;79.18;102407.59;5056725;28;20533;-65
2021/11/11 00:02:40;;;;;;;28.90;14.05;;;;;;;9.83;79.46;102393.88;5056624;28;20067;-66
2021/11/11 00:05:06;;;;;;;33.60;14.18;;;;;;;9.90;78.53;102398.34;5056608;28;20047;-66
2021/11/11 00:07:33;;;;;;;27.23;13.57;;;;;;;9.84;78.13;102396.34;5056558;28;20071;-66
2021/11/11 00:09:58;;;;;;;33.05;14.52;;;;;;;9.82;78.46;102393.09;5056416;28;20045;-65
2021/11/11 00:12:25;;;;;;;29.33;13.50;;;;;;;9.81;78.75;102394.06;5057035;28;20052;-66
2021/11/11 00:14:52;;;;;;;28.13;13.30;;;;;;;9.75;78.90;102389.44;5038512;28;20028;-65
2021/11/11 00:17:18;;;;;;;31.10;14.32;;;;;;;9.68;78.87;102389.19;5038583;28;20029;-66
2021/11/11 00:19:43;;;;;;;28.73;14.15;;;;;;;9.67;78.51;102391.94;5038520;28;20054;-66
2021/11/11 00:22:08;;;;;;;33.60;13.63;;;;;;;9.70;78.46;102387.28;5056398;28;20035;-65
2021/11/11 00:24:34;;;;;;;28.35;14.23;;;;;;;9.75;78.59;102394.59;5056338;28;20166;-66
2021/11/11 00:26:59;;;;;;;27.98;13.43;;;;;;;9.73;78.73;102400.88;5056288;28;20060;-65
2021/11/11 00:29:25;;;;;;;32.40;13.75;;;;;;;9.62;79.14;102405.25;5056145;28;20332;-65
2021/11/11 00:31:50;;;;;;;31.73;13.60;;;;;;;9.68;79.16;102409.03;5038346;28;20056;-65
2021/11/11 00:34:15;;;;;;;29.55;13.98;;;;;;;9.63;78.64;102399.13;5056056;28;20468;-66
2021/11/11 00:36:40;;;;;;;32.25;13.65;;;;;;;9.74;78.75;102412.81;5056075;28;20021;-66
2021/11/11 00:39:06;;;;;;;30.38;14.55;;;;;;;9.70;79.24;102422.63;5056013;28;20444;-65
2021/11/11 00:41:31;;;;;;;34.25;13.90;;;;;;;9.69;78.93;102428.72;5056274;28;20029;-65
2021/11/11 00:43:56;;;;;;;36.20;14.77;;;;;;;9.53;79.67;102407.88;5055905;28;20048;-65
2021/11/11 00:46:22;;;;;;;33.70;14.68;;;;;;;9.63;79.46;102418.97;5055837;28;20032;-65
2021/11/11 00:48:47;;;;;;;31.77;15.18;;;;;;;9.68;79.30;102411.63;5056186;28;20027;-65
2021/11/11 00:51:12;;;;;;;34.25;14.48;;;;;;;9.69;78.89;102401.13;5056050;28;20561;-66
2021/11/11 00:53:37;;;;;;;30.55;14.38;;;;;;;9.71;79.03;102403.59;5055683;28;20033;-65
2021/11/11 00:56:03;;;;;;;32.35;13.57;;;;;;;9.70;79.28;102405.34;5055683;28;20017;-65
2021/11/11 00:58:28;;;;;;;31.13;14.23;;;;;;;9.69;79.14;102397.75;5055940;28;20028;-65
2021/11/11 01:00:54;;;;;;;29.38;14.05;;;;;;;9.67;79.44;102399.69;5055662;28;20383;-65
2021/11/11 01:03:25;;;;;;;31.55;14.98;;;;;;;9.54;79.89;102399.16;5055575;28;20029;-65
2021/11/11 01:05:51;;;;;;;30.15;13.75;;;;;;;9.61;79.70;102398.47;5055865;28;20021;-65
2021/11/11 01:08:17;;;;;;;29.02;13.60;;;;;;;9.62;79.73;102400.09;5054366;28;20035;-65
2021/11/11 01:10:42;;;;;;;32.17;14.65;;;;;;;9.71;79.21;102399.22;5055322;28;20407;-65
2021/11/11 01:13:08;;;;;;;37.15;14.82;;;;;;;9.65;79.61;102406.72;5037482;28;20021;-65
2021/11/11 01:15:33;;;;;;;37.35;14.15;;;;;;;9.72;79.45;102405.19;5055349;28;20500;-65
2021/11/11 01:18:01;;;;;;;32.75;14.88;;;;;;;9.67;79.79;102402.25;5055315;28;20021;-65
2021/11/11 01:20:26;;;;;;;31.02;14.70;;;;;;;9.61;79.99;102403.63;5037406;28;20056;-65
2021/11/11 01:22:54;;;;;;;36.03;15.05;;;;;;;9.70;79.71;102405.34;5037293;28;20048;-66
2021/11/11 01:25:22;;;;;;;28.40;14.35;;;;;;;9.67;79.50;102400.47;5055698;28;20035;-66
2021/11/11 01:27:48;;;;;;;30.80;13.98;;;;;;;9.65;79.60;102410.13;5037288;28;20107;-66
2021/11/11 01:30:14;;;;;;;31.20;13.88;;;;;;;9.73;79.40;102408.63;5055642;28;20128;-65
2021/11/11 01:32:40;;;;;;;36.80;14.30;;;;;;;9.69;79.47;102395.97;5055069;28;20057;-65
2021/11/11 01:35:08;;;;;;;28.90;13.95;;;;;;;9.68;79.26;102393.53;5036999;28;20035;-65
2021/11/11 01:37:34;;;;;;;29.23;14.32;;;;;;;9.65;79.65;102383.50;5054904;28;20025;-65
2021/11/11 01:39:59;;;;;;;32.80;14.73;;;;;;;9.51;79.63;102383.97;5054908;28;20025;-65
2021/11/11 01:42:24;;;;;;;37.83;14.15;;;;;;;9.41;79.97;102382.22;5054852;28;20055;-65
2021/11/11 01:44:52;;;;;;;34.03;14.13;;;;;;;9.44;79.95;102381.94;5036905;28;20506;-65
2021/11/11 01:47:18;;;;;;;31.77;14.63;;;;;;;9.49;80.02;102379.75;5055241;28;20029;-65
2021/11/11 01:49:44;;;;;;;34.95;14.63;;;;;;;9.54;79.99;102378.50;5054674;28;20027;-65
2021/11/11 01:52:12;;;;;;;32.10;13.93;;;;;;;9.52;79.44;102367.50;5036760;28;20029;-65
2021/11/11 01:54:37;;;;;;;29.33;13.32;;;;;;;9.55;79.80;102365.47;5036544;28;20491;-65
2021/11/11 01:57:03;;;;;;;31.92;13.40;;;;;;;9.53;79.75;102364.00;5054752;28;20107;-65
2021/11/11 01:59:28;;;;;;;33.40;14.60;;;;;;;9.47;79.92;102365.38;5054520;28;20387;-65
2021/11/11 02:01:55;;;;;;;33.22;14.00;;;;;;;9.57;79.54;102360.97;5054502;28;20535;-65
2021/11/11 02:04:21;;;;;;;27.92;13.82;;;;;;;9.68;79.27;102365.16;5054612;28;20459;-65
2021/11/11 02:06:46;;;;;;;30.55;13.15;;;;;;;9.59;79.41;102361.66;5054355;28;20032;-65
2021/11/11 02:09:14;;;;;;;28.85;13.75;;;;;;;9.45;79.86;102357.75;5054092;28;20478;-65
2021/11/11 02:11:39;;;;;;;32.33;13.65;;;;;;;9.29;80.61;102360.09;5054498;28;20116;-65
2021/11/11 02:14:05;;;;;;;32.28;14.30;;;;;;;9.31;80.61;102353.03;5054267;28;20104;-65
2021/11/11 02:16:35;;;;;;;32.53;14.63;;;;;;;9.47;80.34;102357.63;5054081;28;20432;-65
2021/11/11 02:19:00;;;;;;;29.45;13.63;;;;;;;9.63;80.08;102359.59;5053885;28;20017;-65
2021/11/11 02:21:26;;;;;;;26.00;12.93;;;;;;;9.65;79.28;102353.34;5054130;28;20525;-65
2021/11/11 02:23:51;;;;;;;34.65;14.20;;;;;;;9.65;79.67;102360.28;5036215;28;20119;-65
2021/11/11 02:26:16;;;;;;;23.27;12.50;;;;;;;9.56;79.76;102359.34;5054059;28;20546;-65
2021/11/11 02:28:42;;;;;;;31.60;13.52;;;;;;;9.49;80.27;102350.53;5053943;28;20078;-65
2021/11/11 02:31:07;;;;;;;28.00;13.80;;;;;;;9.53;80.10;102349.31;5036092;28;20028;-65
2021/11/11 02:33:33;;;;;;;34.05;13.70;;;;;;;9.31;80.90;102358.19;5053913;28;20021;-65
2021/11/11 02:35:59;;;;;;;35.38;14.02;;;;;;;9.17;81.26;102349.13;5054058;28;20452;-65
2021/11/11 02:38:24;;;;;;;32.60;13.80;;;;;;;9.34;80.79;102349.38;5035978;28;20025;-65
2021/11/11 02:40:50;;;;;;;32.80;14.32;;;;;;;9.29;81.24;102349.78;5053733;28;20056;-64
2021/11/11 02:43:16;;;;;;;31.83;13.70;;;;;;;9.37;80.50;102347.31;5053728;28;20028;-64
2021/11/11 02:45:45;;;;;;;30.35;13.65;;;;;;;9.37;80.57;102352.47;5035845;28;20521;-65
2021/11/11 02:48:12;;;;;;;25.52;13.43;;;;;;;9.44;80.78;102350.97;5053691;28;20430;-65
2021/11/11 02:50:38;;;;;;;31.10;13.70;;;;;;;9.45;79.94;102344.84;5054180;28;20036;-65
2021/11/11 02:53:06;;;;;;;32.50;13.60;;;;;;;9.38;79.90;102348.97;5035761;28;20028;-65
2021/11/11 02:55:31;;;;;;;31.27;14.30;;;;;;;9.36;79.90;102337.16;5053412;28;20037;-65
2021/11/11 02:57:58;;;;;;;29.17;13.27;;;;;;;9.42;80.30;102350.28;5053524;28;20383;-65
2021/11/11 03:00:33;;;;;;;34.05;14.70;;;;;;;9.46;80.17;102346.47;5054029;28;20025;-66
2021/11/11 03:02:58;;;;;;;34.42;14.02;;;;;;;9.46;80.10;102354.22;5035558;28;20028;-65
2021/11/11 03:08:45;;;;;;;32.65;12.90;;;;;;;9.49;79.79;102345.38;5053494;28;20083;-65
2021/11/11 03:11:11;;;;;;;30.92;14.05;;;;;;;9.35;80.20;102338.91;5053464;28;20471;-65
2021/11/11 03:13:36;;;;;;;29.85;14.27;;;;;;;9.35;80.18;102336.34;5053320;28;20459;-65
2021/11/11 03:16:02;;;;;;;32.25;13.93;;;;;;;9.35;80.23;102345.81;5035407;28;20029;-65
2021/11/11 03:18:27;;;;;;;34.10;14.07;;;;;;;9.37;79.93;102337.00;5035400;28;20033;-65
2021/11/11 03:20:54;;;;;;;38.80;13.93;;;;;;;9.49;79.47;102347.94;5053271;28;20070;-65
2021/11/11 03:23:20;;;;;;;33.95;14.23;;;;;;;9.50;79.53;102354.75;5035415;28;20025;-65
2021/11/11 03:25:45;;;;;;;28.73;13.88;;;;;;;9.53;79.68;102351.09;5053180;28;20032;-64
2021/11/11 03:28:10;;;;;;;36.97;14.68;;;;;;;9.42;79.59;102342.56;5053258;28;20017;-65
2021/11/11 03:30:36;;;;;;;33.00;14.00;;;;;;;9.49;79.33;102350.53;5054187;28;20388;-64
2021/11/11 03:33:03;;;;;;;26.98;13.77;;;;;;;9.39;79.33;102349.78;5039681;28;20093;-64
2021/11/11 03:35:29;;;;;;;29.50;13.57;;;;;;;9.29;80.34;102348.97;5057069;28;20104;-67
2021/11/11 03:37:57;;;;;;;33.63;15.35;;;;;;;9.24;79.84;102350.22;5057255;28;20106;-64
2021/11/11 03:40:25;;;;;;;34.78;14.90;;;;;;;9.38;79.92;102341.22;5057412;28;20029;-65
2021/11/11 03:42:52;;;;;;;32.08;14.25;;;;;;;9.48;79.71;102336.81;5057645;28;20032;-65
2021/11/11 03:45:17;;;;;;;31.70;13.85;;;;;;;9.40;79.47;102338.47;5057027;28;20467;-65
2021/11/11 03:47:44;;;;;;;29.05;13.50;;;;;;;9.38;79.62;102341.22;5057518;28;20029;-65
2021/11/11 03:50:11;;;;;;;33.42;14.23;;;;;;;9.46;79.71;102345.66;5057499;28;20021;-65
2021/11/11 03:52:37;;;;;;;36.53;14.48;;;;;;;9.47;79.41;102347.31;5056953;28;20029;-65
2021/11/11 03:55:06;;;;;;;32.80;14.32;;;;;;;9.32;79.89;102352.09;5038825;28;20115;-65
2021/11/11 03:57:31;;;;;;;28.02;14.30;;;;;;;9.40;79.95;102354.78;5038910;28;20091;-66
2021/11/11 03:59:56;;;;;;;31.25;14.52;;;;;;;9.44;79.70;102363.06;5056853;28;20025;-65
2021/11/11 04:02:23;;;;;;;30.52;14.90;;;;;;;9.47;79.56;102363.59;5038927;28;20013;-65
2021/11/11 04:04:49;;;;;;;33.33;15.00;;;;;;;9.55;79.38;102367.22;5056783;28;20021;-65
2021/11/11 04:07:15;;;;;;;31.23;14.95;;;;;;;9.46;79.69;102366.31;5038793;28;20021;-65
2021/11/11 04:09:40;;;;;;;37.30;15.23;;;;;;;9.43;80.19;102369.16;5038442;28;20060;-65
2021/11/11 04:12:06;;;;;;;35.03;15.60;;;;;;;9.37;80.30;102369.72;5038695;28;20055;-65
2021/11/11 04:14:32;;;;;;;37.65;15.77;;;;;;;9.36;80.57;102368.91;5056514;28;20082;-65
2021/11/11 04:16:57;;;;;;;33.22;16.02;;;;;;;9.31;81.08;102386.56;5038608;28;20056;-65
2021/11/11 04:19:22;;;;;;;35.55;16.92;;;;;;;9.44;80.97;102378.56;5056379;28;20020;-65
2021/11/11 04:21:48;;;;;;;38.45;15.57;;;;;;;9.38;81.02;102379.09;5056674;28;20108;-65
2021/11/11 04:24:13;;;;;;;34.08;15.38;;;;;;;9.44;81.50;102374.19;5056627;28;20021;-65
2021/11/11 04:26:51;;;;;;;33.88;16.38;;;;;;;9.33;81.52;102373.56;5038474;28;20387;-65
2021/11/11 04:29:23;;;;;;;34.97;16.63;;;;;;;9.26;81.38;102370.69;5056329;28;20036;-65
2021/11/11 04:32:00;;;;;;;35.70;16.80;;;;;;;9.30;81.80;102366.91;5056712;28;20029;-65
2021/11/11 04:34:27;;;;;;;38.33;16.75;;;;;;;9.27;81.94;102370.56;5056139;28;20021;-65
2021/11/11 04:37:09;;;;;;;37.05;17.38;;;;;;;9.35;81.70;102369.03;5056632;28;20035;-65
2021/11/11 04:40:14;;;;;;;34.58;16.75;;;;;;;9.43;81.73;102366.59;5056087;28;20082;-65
2021/11/11 05:01:26;;;;;;;33.65;18.63;;;;;;;9.33;83.14;102364.03;5056515;28;20129;-64
2021/11/11 05:03:52;;;;;;;37.25;18.38;;;;;;;9.17;83.20;102362.03;5055541;28;20387;-65
2021/11/11 05:06:18;;;;;;;39.45;18.85;;;;;;;9.24;82.87;102364.88;5037675;28;20124;-65
2021/11/11 05:08:44;;;;;;;40.67;18.80;;;;;;;9.08;83.32;102359.47;5055377;28;20068;-65
2021/11/11 05:11:09;;;;;;;40.60;18.90;;;;;;;9.09;83.62;102363.66;5037622;28;20098;-64
2021/11/11 05:13:36;;;;;;;36.95;19.10;;;;;;;8.96;84.17;102366.56;5055696;28;20024;-64
2021/11/11 05:16:02;;;;;;;40.40;19.38;;;;;;;8.97;84.36;102363.00;5037380;28;20108;-64
2021/11/11 05:18:27;;;;;;;38.00;19.33;;;;;;;8.89;84.51;102360.28;5056748;28;20060;-64
2021/11/11 05:20:52;;;;;;;37.53;19.23;;;;;;;8.99;84.31;102371.44;5055288;28;20118;-64
2021/11/11 05:23:18;;;;;;;40.97;19.45;;;;;;;8.84;84.52;102363.31;5055255;28;20468;-64
2021/11/11 05:25:44;;;;;;;42.28;20.52;;;;;;;8.84;85.06;102365.88;5055159;28;20024;-64
2021/11/11 05:28:10;;;;;;;46.65;22.00;;;;;;;8.88;85.45;102369.81;5055199;28;20021;-64
2021/11/11 05:30:35;;;;;;;37.97;20.65;;;;;;;8.85;84.96;102364.91;5055227;28;20033;-64
2021/11/11 05:33:01;;;;;;;43.83;21.40;;;;;;;8.87;85.02;102368.19;5055075;28;20031;-64
2021/11/11 05:35:27;;;;;;;39.55;20.58;;;;;;;8.92;84.92;102371.19;5054888;28;20041;-64
2021/11/11 05:37:53;;;;;;;46.17;21.75;;;;;;;8.94;84.54;102365.88;5054971;28;20036;-64
2021/11/11 05:40:20;;;;;;;41.25;20.85;;;;;;;8.96;85.26;102375.09;5054973;28;20441;-64
2021/11/11 05:42:46;;;;;;;44.63;22.05;;;;;;;9.03;84.83;102377.94;5055139;28;20376;-65
2021/11/11 05:45:12;;;;;;;40.95;21.27;;;;;;;9.03;84.41;102365.88;5055069;28;20020;-64
2021/11/11 05:47:38;;;;;;;48.58;21.50;;;;;;;9.16;83.46;102375.88;5054747;28;20029;-65
2021/11/11 05:50:04;;;;;;;40.20;20.98;;;;;;;9.15;83.26;102374.28;5055331;28;20416;-65
2021/11/11 05:52:30;;;;;;;40.08;20.45;;;;;;;9.20;83.28;102381.56;5036684;28;20037;-66
2021/11/11 05:54:55;;;;;;;41.75;20.65;;;;;;;9.25;82.84;102377.63;5053904;28;20150;-65
2021/11/11 05:57:20;;;;;;;43.88;20.65;;;;;;;9.25;83.08;102377.63;5036783;28;20016;-65
2021/11/11 05:59:46;;;;;;;38.60;20.23;;;;;;;9.15;83.77;102381.16;5054520;28;20481;-65
2021/11/11 06:02:13;;;;;;;41.75;20.60;;;;;;;9.23;83.71;102376.94;5036625;28;20103;-65
2021/11/11 06:04:39;;;;;;;46.47;21.10;;;;;;;9.20;83.24;102384.16;5054489;28;20473;-65
2021/11/11 06:07:05;;;;;;;43.58;21.23;;;;;;;9.20;83.00;102379.00;5036563;28;20021;-66
2021/11/11 06:09:30;;;;;;;42.78;21.15;;;;;;;9.25;83.22;102381.97;5054383;28;20122;-65
2021/11/11 06:11:55;;;;;;;41.28;21.75;;;;;;;9.14;83.38;102375.19;5054306;28;20111;-65
2021/11/11 06:14:21;;;;;;;37.60;19.45;;;;;;;9.34;82.72;102381.13;5054176;28;20025;-65
2021/11/11 06:16:46;;;;;;;37.85;20.00;;;;;;;9.18;82.82;102374.00;5054513;28;20036;-65
2021/11/11 06:19:12;;;;;;;41.85;21.25;;;;;;;9.16;83.03;102370.72;5036278;28;20021;-65
2021/11/11 06:21:39;;;;;;;45.40;21.33;;;;;;;9.21;82.54;102381.44;5054117;28;20021;-65
2021/11/11 06:24:05;;;;;;;39.75;21.02;;;;;;;9.33;83.05;102389.84;5054100;28;20103;-65
2021/11/11 06:26:31;;;;;;;41.97;20.45;;;;;;;9.37;82.67;102390.38;5054382;28;20383;-65
2021/11/11 06:28:56;;;;;;;46.97;21.83;;;;;;;9.33;82.66;102389.84;5036175;28;20028;-65
2021/11/11 06:31:22;;;;;;;46.05;20.90;;;;;;;9.36;82.23;102386.97;5053886;28;20025;-65
2021/11/11 06:33:47;;;;;;;41.35;20.85;;;;;;;9.36;82.45;102386.16;5053926;28;20080;-65
2021/11/11 06:36:13;;;;;;;44.97;21.58;;;;;;;9.22;82.46;102393.38;5053854;28;20021;-65
2021/11/11 06:38:39;;;;;;;46.75;21.02;;;;;;;9.27;82.76;102396.38;5053815;28;20104;-65
2021/11/11 06:41:05;;;;;;;44.15;20.70;;;;;;;9.28;82.50;102397.19;5053749;28;20045;-65
2021/11/11 06:43:30;;;;;;;47.83;21.73;;;;;;;9.13;83.64;102396.00;5053661;28;20041;-65
2021/11/11 06:45:56;;;;;;;38.75;20.38;;;;;;;9.02;83.26;102394.38;5053966;28;20352;-65
2021/11/11 06:48:21;;;;;;;46.30;21.77;;;;;;;9.05;83.48;102399.25;5053728;28;20364;-65
2021/11/11 06:50:47;;;;;;;47.60;22.45;;;;;;;9.17;83.29;102407.66;5053582;28;20032;-65
2021/11/11 06:53:16;;;;;;;47.45;21.98;;;;;;;9.17;83.44;102399.91;5035650;28;20029;-65
2021/11/11 06:55:43;;;;;;;45.03;21.95;;;;;;;9.17;83.03;102408.44;5053387;28;20029;-65
2021/11/11 06:58:10;;;;;;;43.13;21.50;;;;;;;9.07;83.61;102406.84;5053799;28;20483;-65
2021/11/11 07:00:36;;;;;;;42.28;21.02;;;;;;;9.03;83.53;102406.28;5035792;28;20096;-65
2021/11/11 07:03:01;;;;;;;39.30;20.92;;;;;;;9.03;84.27;102414.88;5035518;28;20561;-65
2021/11/11 07:05:27;;;;;;;44.75;21.33;;;;;;;8.93;84.14;102416.63;5052616;28;20020;-65
2021/11/11 07:07:52;;;;;;;43.13;21.02;;;;;;;8.99;83.73;102428.16;5053650;28;20033;-65
2021/11/11 07:10:17;;;;;;;44.72;20.83;;;;;;;9.12;83.24;102420.97;5053141;28;20051;-65
2021/11/11 07:12:44;;;;;;;44.17;20.52;;;;;;;9.12;83.33;102420.13;5053277;28;20052;-65
2021/11/11 07:15:13;;;;;;;47.05;20.65;;;;;;;9.10;83.47;102422.06;5053046;28;20048;-65
2021/11/11 07:17:40;;;;;;;40.70;20.48;;;;;;;9.25;83.06;102423.25;5035409;28;20028;-66
2021/11/11 07:20:10;;;;;;;49.05;20.90;;;;;;;9.24;82.76;102421.63;5035343;28;20033;-65
2021/11/11 07:22:37;;;;;;;45.35;20.67;;;;;;;9.18;82.64;102419.59;5053455;28;20086;-66
2021/11/11 07:25:03;;;;;;;44.92;19.88;;;;;;;9.10;83.32;102427.22;5053215;28;20033;-66
2021/11/11 07:27:30;;;;;;;43.25;20.02;;;;;;;9.33;82.67;102430.31;5035305;28;20464;-65
2021/11/11 07:29:55;;;;;;;44.40;19.55;;;;;;;9.29;83.04;102427.16;5053154;28;20136;-66
2021/11/11 07:32:20;;;;;;;48.72;20.33;;;;;;;9.40;82.09;102432.19;5053102;28;20071;-65
2021/11/11 07:34:46;;;;;;;46.03;20.98;;;;;;;9.43;81.98;102436.25;5053165;28;20021;-65
2021/11/11 07:37:11;;;;;;;39.10;19.20;;;;;;;9.37;82.15;102435.03;5053045;28;20024;-65
2021/11/11 07:39:36;;;;;;;38.25;18.85;;;;;;;9.33;82.13;102435.47;5035252;28;20127;-66
2021/11/11 07:42:02;;;;;;;37.22;18.70;;;;;;;9.44;81.92;102443.06;5053668;28;20020;-65
2021/11/11 07:44:27;;;;;;;43.30;18.65;;;;;;;9.54;81.54;102437.88;5053078;28;20482;-66
2021/11/11 07:46:53;;;;;;;43.25;18.63;;;;;;;9.54;81.22;102443.84;5052976;28;20071;-66
2021/11/11 07:49:19;;;;;;;41.38;18.50;;;;;;;9.64;81.54;102438.69;5052937;28;20069;-66
2021/11/11 07:51:45;;;;;;;43.13;19.33;;;;;;;9.59;81.31;102446.81;5053078;28;20058;-66
2021/11/11 07:54:10;;;;;;;43.00;18.83;;;;;;;9.63;81.02;102448.16;5034972;28;20064;-66
2021/11/11 07:56:37;;;;;;;42.88;18.52;;;;;;;9.61;81.00;102460.41;5052859;28;20031;-65
2021/11/11 07:59:04;;;;;;;40.25;18.70;;;;;;;9.73;80.90;102455.91;5052833;28;20040;-65
2021/11/11 08:01:30;;;;;;;39.15;18.38;;;;;;;9.77;80.74;102454.66;5053078;28;20032;-66
2021/11/11 08:03:55;;;;;;;41.80;18.65;;;;;;;9.75;80.65;102453.97;5035015;28;20391;-66
2021/11/11 08:06:20;;;;;;;36.38;17.85;;;;;;;9.85;80.27;102457.34;5052911;28;21065;-66
2021/11/11 08:08:46;;;;;;;40.85;17.65;;;;;;;9.77;80.06;102449.50;5034545;28;20060;-66
2021/11/11 08:11:11;;;;;;;49.33;19.17;;;;;;;9.78;79.74;102464.03;5052710;28;20129;-66
2021/11/11 08:13:37;;;;;;;40.05;17.48;;;;;;;9.88;80.02;102467.41;5052718;28;20059;-66
2021/11/11 08:16:02;;;;;;;42.40;18.63;;;;;;;9.82;80.11;102455.06;5035436;28;20471;-71
2021/11/11 08:18:28;;;;;;;39.78;18.35;;;;;;;9.85;79.89;102452.19;5056502;28;20017;-71
2021/11/11 08:20:54;;;;;;;39.38;18.08;;;;;;;9.79;80.17;102452.75;5038524;28;20025;-71
2021/11/11 08:23:20;;;;;;;33.42;17.20;;;;;;;9.59;80.29;102453.75;5038421;28;20492;-72
2021/11/11 08:25:48;;;;;;;40.70;17.83;;;;;;;9.58;80.63;102450.38;5056334;28;20096;-71
2021/11/11 08:28:19;;;;;;;49.03;18.55;;;;;;;9.66;80.91;102453.03;5056618;28;20460;-71
2021/11/11 08:30:45;;;;;;;41.35;17.75;;;;;;;9.73;80.66;102448.16;5056160;28;20356;-71
2021/11/11 08:33:12;;;;;;;46.38;18.15;;;;;;;9.87;80.35;102441.72;5056292;28;20426;-71
2021/11/11 08:35:38;;;;;;;41.35;18.65;;;;;;;9.74;80.57;102443.78;5038124;28;20025;-71
2021/11/11 08:38:04;;;;;;;39.50;18.27;;;;;;;9.78;80.95;102445.13;5056098;28;20029;-71
2021/11/11 08:40:30;;;;;;;40.28;17.67;;;;;;;9.74;81.17;102439.44;5056067;28;20475;-71
2021/11/11 08:42:58;;;;;;;38.85;17.90;;;;;;;9.75;80.91;102446.22;5038003;28;20112;-71
2021/11/11 08:45:25;;;;;;;57.42;18.88;;;;;;;9.80;81.92;102444.03;5055921;28;20019;-71
2021/11/11 08:47:51;;;;;;;41.95;18.55;;;;;;;9.94;81.28;102441.00;5055855;28;20021;-71
2021/11/11 08:50:17;;;;;;;44.70;18.95;;;;;;;10.01;80.57;102441.25;5055832;28;20102;-70
2021/11/11 08:52:44;;;;;;;41.63;19.02;;;;;;;9.79;81.16;102439.03;5037898;28;20029;-69
2021/11/11 08:55:17;;;;;;;38.72;17.77;;;;;;;9.79;82.07;102441.63;5055377;28;20049;-69
2021/11/11 08:57:43;;;;;;;45.10;18.92;;;;;;;9.75;82.72;102437.66;5037509;28;20112;-70
2021/11/11 09:00:14;;;;;;;48.28;19.13;;;;;;;9.76;82.64;102441.91;5055492;28;20069;-70
2021/11/11 09:02:40;;;;;;;43.08;19.73;;;;;;;9.74;82.82;102443.78;5055889;28;20101;-71
2021/11/11 09:05:06;;;;;;;44.25;19.73;;;;;;;9.75;82.79;102446.22;5037526;28;20036;-69
2021/11/11 09:07:31;;;;;;;47.00;19.88;;;;;;;9.92;82.17;102445.47;5055516;28;20028;-71
2021/11/11 09:09:57;;;;;;;42.38;18.63;;;;;;;10.05;82.19;102450.34;5055349;28;20044;-71
2021/11/11 09:12:23;;;;;;;46.08;19.08;;;;;;;10.16;81.27;102450.16;5055427;28;20130;-71
2021/11/11 09:14:48;;;;;;;39.22;18.98;;;;;;;10.20;81.24;102455.84;5055325;28;20079;-71
2021/11/11 09:17:14;;;;;;;41.90;18.88;;;;;;;10.00;82.00;102454.31;5055292;28;20031;-71
2021/11/11 09:19:39;;;;;;;42.88;18.95;;;;;;;10.15;81.86;102458.03;5055120;28;20025;-71
2021/11/11 09:22:05;;;;;;;42.60;18.67;;;;;;;10.19;81.32;102461.97;5055217;28;20021;-69
2021/11/11 09:24:32;;;;;;;39.58;18.13;;;;;;;9.96;81.76;102458.13;5037350;28;20467;-71
2021/11/11 09:26:57;;;;;;;43.53;19.23;;;;;;;10.01;82.14;102459.34;5055060;28;20475;-72
2021/11/11 09:29:23;;;;;;;43.88;18.63;;;;;;;10.15;81.35;102458.84;5054226;28;20035;-71
2021/11/11 09:31:49;;;;;;;39.42;19.05;;;;;;;10.10;81.44;102466.25;5055558;28;20100;-71
2021/11/11 09:34:15;;;;;;;39.72;19.48;;;;;;;10.02;81.39;102467.91;5037165;28;20483;-71
2021/11/11 09:36:40;;;;;;;36.83;17.67;;;;;;;10.07;81.71;102460.50;5037731;28;20036;-71
2021/11/11 09:39:06;;;;;;;51.70;19.50;;;;;;;10.07;81.70;102460.50;5054824;28;20504;-71
2021/11/11 09:41:33;;;;;;;42.67;18.48;;;;;;;10.12;81.45;102463.50;5054856;28;20031;-71
2021/11/11 09:43:58;;;;;;;46.63;19.23;;;;;;;10.26;80.93;102460.44;5036885;28;20112;-72
2021/11/11 09:46:27;;;;;;;45.08;19.60;;;;;;;10.15;81.28;102455.47;5055733;28;20443;-72
2021/11/11 09:48:53;;;;;;;44.92;18.85;;;;;;;10.44;80.38;102460.50;5037242;28;20032;-72
2021/11/11 09:51:21;;;;;;;39.92;18.42;;;;;;;10.57;79.38;102468.75;5054733;28;20028;-72
2021/11/11 09:54:01;;;;;;;43.05;19.08;;;;;;;10.46;80.77;102461.19;5054645;28;20083;-72
2021/11/11 09:59:11;;;;;;;41.65;18.50;;;;;;;10.55;79.67;102464.66;5055299;28;20391;-71
2021/11/11 10:01:36;;;;;;;46.20;18.98;;;;;;;10.44;79.88;102464.88;5036446;28;20112;-72
2021/11/11 10:04:02;;;;;;;44.85;20.27;;;;;;;10.51;79.79;102471.09;5054297;28;20032;-72
2021/11/11 10:06:28;;;;;;;34.10;17.65;;;;;;;10.53;79.39;102469.16;5054253;28;20078;-72
2021/11/11 10:08:56;;;;;;;39.75;18.38;;;;;;;10.51;80.01;102468.50;5054095;28;20076;-71
2021/11/11 10:11:26;;;;;;;40.55;18.98;;;;;;;10.41;80.13;102473.72;5036263;28;20107;-72
2021/11/11 10:14:03;;;;;;;40.28;18.80;;;;;;;10.73;79.73;102469.84;5054471;28;20375;-72
2021/11/11 10:16:29;;;;;;;40.97;19.00;;;;;;;10.61;78.99;102467.47;5036277;28;20380;-71
2021/11/11 10:18:59;;;;;;;37.60;18.88;;;;;;;10.63;79.62;102475.09;5054882;28;20079;-71
2021/11/11 10:21:41;;;;;;;41.90;19.40;;;;;;;10.62;79.21;102445.03;5036250;28;20028;-72
2021/11/11 10:25:21;;;;;;;38.87;19.77;;;;;;;10.77;79.11;102478.97;5036269;28;20025;-71
2021/11/11 10:27:43;;;;;;;39.95;18.80;;;;;;;11.04;78.23;102475.47;5043223;28;20048;-72
2021/11/11 10:30:21;;;;;;;41.17;19.77;;;;;;;11.05;78.00;102474.53;5054029;28;20127;-72
2021/11/11 10:32:46;;;;;;;44.88;19.35;;;;;;;10.90;79.13;102476.81;5053928;28;20162;-71
2021/11/11 10:35:18;;;;;;;40.53;19.20;;;;;;;11.04;78.98;102478.06;5035986;28;20128;-71
2021/11/11 10:37:59;;;;;;;44.30;18.88;;;;;;;10.97;78.62;102472.69;5053893;28;20463;-71
2021/11/11 10:40:35;;;;;;;40.15;19.00;;;;;;;10.97;79.16;102472.69;5053574;28;20356;-71
2021/11/11 10:43:07;;;;;;;39.70;19.23;;;;;;;11.03;79.75;102466.91;5035877;28;20368;-70
2021/11/11 10:45:36;;;;;;;42.15;19.92;;;;;;;11.16;78.86;102463.94;5053715;28;20063;-71
2021/11/11 10:48:04;;;;;;;44.50;19.60;;;;;;;11.10;79.86;102468.91;5053673;28;20029;-71
2021/11/11 10:50:36;;;;;;;41.47;19.42;;;;;;;11.21;79.07;102460.91;5053591;28;20151;-72
2021/11/11 10:53:06;;;;;;;39.72;19.15;;;;;;;11.11;79.73;102455.03;5053547;28;20099;-73
2021/11/11 10:55:37;;;;;;;37.13;19.70;;;;;;;11.23;79.57;102462.38;5053268;28;20120;-74
2021/11/11 10:58:14;;;;;;;41.88;19.65;;;;;;;11.37;79.34;102450.69;5053493;28;20046;-73
2021/11/11 11:00:53;;;;;;;43.08;19.85;;;;;;;11.24;79.49;102456.25;5035681;28;20112;-71
2021/11/11 11:03:18;;;;;;;47.33;21.00;;;;;;;11.18;80.14;102467.19;5035532;28;20013;-73
2021/11/11 11:05:43;;;;;;;41.85;19.77;;;;;;;11.15;80.01;102446.00;5053406;28;20047;-72
2021/11/11 11:08:13;;;;;;;42.20;19.48;;;;;;;11.21;80.26;102463.50;5053333;28;20085;-73
2021/11/11 11:10:42;;;;;;;42.80;19.67;;;;;;;11.19;79.41;102458.50;5053085;28;20159;-73
2021/11/11 11:13:17;;;;;;;45.25;20.65;;;;;;;11.27;79.88;102460.31;5053244;28;20021;-72
2021/11/11 11:16:05;;;;;;;60.50;20.60;;;;;;;11.32;79.74;102462.47;5053152;28;20467;-72
2021/11/11 11:21:54;;;;;;;41.58;20.17;;;;;;;11.33;79.83;102459.69;5053971;28;20063;-69
2021/11/11 11:24:23;;;;;;;44.90;20.80;;;;;;;11.60;79.32;102456.19;5052942;28;20035;-71
2021/11/11 11:27:08;;;;;;;45.55;22.30;;;;;;;11.86;78.69;102455.38;5035158;28;20052;-73
2021/11/11 11:32:17;;;;;;;43.58;21.20;;;;;;;11.70;79.37;102456.06;5053924;28;20039;-74
2021/11/11 11:34:45;;;;;;;50.08;21.77;;;;;;;11.69;79.42;102459.63;5053280;28;20073;-73
2021/11/11 11:37:21;;;;;;;42.03;21.42;;;;;;;11.56;79.49;102454.03;5053384;28;20021;-73
2021/11/11 11:39:49;;;;;;;47.95;22.05;;;;;;;11.39;81.20;102446.16;5052785;28;20382;-73
2021/11/11 11:42:22;;;;;;;47.55;21.75;;;;;;;11.63;80.14;102445.50;5052903;28;20025;-73
2021/11/11 11:44:50;;;;;;;54.13;23.00;;;;;;;11.67;80.40;102440.84;5053632;28;20124;-73